Time;durP1;ratioP1;P1;durP2;ratioP2;P2;SDS_P1;SDS_P2;PMS_P1;PMS_P2;Temp;Humidity;BMP_temperature;BMP_pressure;BME280_temperature;BME280_humidity;BME280_pressure;Samples;Min_cycle;Max_cycle;Signal;HPM_P1;HPM_P2
2024/01/31 00:01:32;;;;;;;8.45;1.42;;;;;;;;;;5036036;28;20057;-81
2024/01/31 00:03:58;;;;;;;10.70;1.60;;;;;;;;;;5023450;28;20045;-81
2024/01/31 00:06:24;;;;;;;8.77;1.70;;;;;;;;;;5038051;28;20056;-81
2024/01/31 00:08:50;;;;;;;12.93;1.70;;;;;;;;;;5028120;28;20038;-80
2024/01/31 00:11:16;;;;;;;8.38;1.48;;;;;;;;;;5036659;28;20049;-81
2024/01/31 00:13:42;;;;;;;10.70;1.58;;;;;;;;;;5039169;28;20041;-81
2024/01/31 00:16:08;;;;;;;8.15;1.65;;;;;;;;;;5039013;28;20045;-81
2024/01/31 00:18:35;;;;;;;11.73;1.88;;;;;;;;;;5029964;28;20046;-81
2024/01/31 00:21:01;;;;;;;7.68;1.55;;;;;;;;;;5037180;28;20038;-80
2024/01/31 00:23:27;;;;;;;11.75;1.60;;;;;;;;;;5041873;28;20063;-81
2024/01/31 00:25:53;;;;;;;8.70;1.42;;;;;;;;;;5039560;28;20045;-81
2024/01/31 00:28:19;;;;;;;9.18;1.45;;;;;;;;;;5044972;28;20601;-81
2024/01/31 00:30:45;;;;;;;9.30;1.40;;;;;;;;;;5040993;28;20033;-80
2024/01/31 00:33:11;;;;;;;9.30;1.98;;;;;;;;;;5043127;28;20080;-80
2024/01/31 00:35:37;;;;;;;9.43;1.55;;;;;;;;;;5043743;28;20509;-80
2024/01/31 00:38:03;;;;;;;8.63;1.15;;;;;;;;;;5036755;28;20041;-81
2024/01/31 00:40:29;;;;;;;10.75;1.60;;;;;;;;;;5041050;28;20412;-81
2024/01/31 00:42:55;;;;;;;11.05;1.60;;;;;;;;;;5041459;28;20099;-80
2024/01/31 00:45:22;;;;;;;13.23;1.80;;;;;;;;;;5043052;28;20038;-81
2024/01/31 00:47:48;;;;;;;8.55;1.92;;;;;;;;;;5036111;28;20100;-81
2024/01/31 00:50:14;;;;;;;10.82;1.35;;;;;;;;;;5035907;28;20055;-81
2024/01/31 00:52:41;;;;;;;10.13;1.15;;;;;;;;;;5041316;28;20044;-81
2024/01/31 00:55:07;;;;;;;8.77;1.42;;;;;;;;;;5043484;28;20049;-80
2024/01/31 00:57:34;;;;;;;9.02;1.20;;;;;;;;;;5043626;28;20068;-81
2024/01/31 01:00:11;;;;;;;9.70;1.30;;;;;;;;;;5043718;28;20038;-80
2024/01/31 01:02:40;;;;;;;7.97;1.20;;;;;;;;;;5040216;28;20446;-81
2024/01/31 01:05:07;;;;;;;9.50;1.40;;;;;;;;;;5037163;28;20098;-80
2024/01/31 01:07:33;;;;;;;8.90;1.25;;;;;;;;;;5025884;28;20056;-81
2024/01/31 01:09:59;;;;;;;7.20;1.05;;;;;;;;;;5043677;28;20555;-81
2024/01/31 01:12:25;;;;;;;11.48;1.40;;;;;;;;;;5042940;28;20052;-81
2024/01/31 01:14:51;;;;;;;11.52;1.40;;;;;;;;;;5033383;28;20060;-81
2024/01/31 01:17:17;;;;;;;11.40;1.77;;;;;;;;;;5033340;28;20041;-81
2024/01/31 01:19:43;;;;;;;11.20;1.90;;;;;;;;;;5043611;28;20045;-80
2024/01/31 01:22:09;;;;;;;11.65;1.80;;;;;;;;;;5034082;28;20042;-81
2024/01/31 01:24:35;;;;;;;10.57;1.50;;;;;;;;;;5023520;28;20046;-80
2024/01/31 01:27:01;;;;;;;7.93;1.40;;;;;;;;;;5042398;28;20446;-80
2024/01/31 01:29:27;;;;;;;16.13;2.00;;;;;;;;;;5039803;28;20061;-80
2024/01/31 01:31:53;;;;;;;11.50;1.60;;;;;;;;;;5021621;28;20072;-80
2024/01/31 01:34:19;;;;;;;9.57;2.35;;;;;;;;;;5028486;28;20041;-80
2024/01/31 01:36:45;;;;;;;11.32;1.30;;;;;;;;;;5042546;28;20048;-81
2024/01/31 01:39:12;;;;;;;9.00;1.63;;;;;;;;;;5042536;28;20045;-80
2024/01/31 01:41:38;;;;;;;8.90;1.35;;;;;;;;;;5041109;28;20042;-80
2024/01/31 01:44:04;;;;;;;8.13;1.40;;;;;;;;;;5038407;28;20060;-81
2024/01/31 01:46:31;;;;;;;9.90;1.35;;;;;;;;;;5042065;28;20057;-80
2024/01/31 01:48:57;;;;;;;9.75;1.50;;;;;;;;;;5036208;28;20033;-80
2024/01/31 01:51:25;;;;;;;13.55;1.63;;;;;;;;;;5033058;28;20521;-80
2024/01/31 01:53:51;;;;;;;11.20;1.50;;;;;;;;;;5041311;28;20098;-80
2024/01/31 01:56:18;;;;;;;10.45;1.35;;;;;;;;;;5042670;28;20056;-81
2024/01/31 01:58:48;;;;;;;12.50;1.50;;;;;;;;;;5041916;28;20407;-80
2024/01/31 02:01:14;;;;;;;11.60;1.25;;;;;;;;;;5030191;28;20100;-81
2024/01/31 02:03:42;;;;;;;9.23;1.40;;;;;;;;;;5027770;28;20042;-81
2024/01/31 02:06:08;;;;;;;11.02;1.50;;;;;;;;;;5034963;28;20050;-81
2024/01/31 02:08:34;;;;;;;11.13;1.33;;;;;;;;;;5027883;28;20099;-81
2024/01/31 02:11:00;;;;;;;8.95;1.17;;;;;;;;;;5033087;28;20120;-81
2024/01/31 02:13:26;;;;;;;10.27;1.63;;;;;;;;;;5041759;28;20465;-80
2024/01/31 02:15:56;;;;;;;9.25;1.48;;;;;;;;;;5041975;28;20077;-81
2024/01/31 02:18:22;;;;;;;8.48;1.15;;;;;;;;;;5041000;28;20045;-81
2024/01/31 02:20:48;;;;;;;11.13;1.35;;;;;;;;;;5041211;28;20542;-81
2024/01/31 02:23:15;;;;;;;9.65;1.45;;;;;;;;;;5040150;28;20042;-80
2024/01/31 02:25:41;;;;;;;10.52;1.40;;;;;;;;;;5039236;28;20068;-80
2024/01/31 02:28:07;;;;;;;7.35;1.10;;;;;;;;;;5041707;28;20064;-80
2024/01/31 02:30:33;;;;;;;6.30;1.17;;;;;;;;;;5028053;28;20033;-80
2024/01/31 02:32:59;;;;;;;8.35;1.15;;;;;;;;;;5038096;28;20038;-80
2024/01/31 02:35:25;;;;;;;8.27;1.17;;;;;;;;;;5040894;28;20495;-80
2024/01/31 02:37:52;;;;;;;11.77;1.30;;;;;;;;;;5041054;28;20120;-80
2024/01/31 02:40:18;;;;;;;9.65;1.20;;;;;;;;;;5040044;28;20505;-80
2024/01/31 02:42:44;;;;;;;10.32;1.13;;;;;;;;;;5039424;28;20049;-80
2024/01/31 02:45:10;;;;;;;6.63;1.10;;;;;;;;;;5039985;28;20395;-80
2024/01/31 02:47:36;;;;;;;5.88;0.85;;;;;;;;;;5039990;28;20087;-81
2024/01/31 02:50:03;;;;;;;6.85;1.00;;;;;;;;;;5039271;28;20038;-81
2024/01/31 02:52:30;;;;;;;9.32;1.55;;;;;;;;;;5038445;28;20084;-80
2024/01/31 02:54:58;;;;;;;7.05;1.20;;;;;;;;;;5039895;28;20044;-80
2024/01/31 02:57:24;;;;;;;6.32;1.17;;;;;;;;;;5040530;28;20087;-80
2024/01/31 02:59:50;;;;;;;7.82;1.23;;;;;;;;;;5039701;28;20069;-80
2024/01/31 03:02:17;;;;;;;8.90;1.40;;;;;;;;;;5039250;28;20049;-80
2024/01/31 03:04:43;;;;;;;6.53;1.20;;;;;;;;;;5015787;28;20046;-80
2024/01/31 03:07:10;;;;;;;9.70;1.50;;;;;;;;;;5029069;28;20102;-80
2024/01/31 03:09:36;;;;;;;8.85;1.33;;;;;;;;;;5036694;28;20061;-81
2024/01/31 03:12:04;;;;;;;8.52;1.60;;;;;;;;;;5039613;28;20502;-81
2024/01/31 03:14:33;;;;;;;6.22;1.45;;;;;;;;;;5037561;28;20076;-80
2024/01/31 03:16:59;;;;;;;9.70;1.55;;;;;;;;;;5037391;28;20048;-81
2024/01/31 03:19:27;;;;;;;7.07;1.45;;;;;;;;;;5037694;28;20044;-80
2024/01/31 03:21:54;;;;;;;9.90;1.42;;;;;;;;;;5038647;28;20037;-80
2024/01/31 03:24:20;;;;;;;10.07;1.10;;;;;;;;;;5038015;28;20041;-81
2024/01/31 03:26:46;;;;;;;5.55;1.08;;;;;;;;;;5027055;28;20403;-80
2024/01/31 03:29:12;;;;;;;9.30;1.35;;;;;;;;;;5032228;28;20426;-80
2024/01/31 03:31:38;;;;;;;9.48;1.20;;;;;;;;;;5035019;28;20049;-80
2024/01/31 03:34:07;;;;;;;7.68;1.35;;;;;;;;;;5036900;28;20576;-80
2024/01/31 03:36:33;;;;;;;9.00;1.30;;;;;;;;;;5037472;28;20048;-81
2024/01/31 03:39:00;;;;;;;7.03;1.20;;;;;;;;;;5036673;28;20124;-81
2024/01/31 03:41:26;;;;;;;7.25;1.23;;;;;;;;;;5020744;28;20050;-81
2024/01/31 03:43:52;;;;;;;5.95;0.95;;;;;;;;;;5021095;28;20092;-80
2024/01/31 03:46:18;;;;;;;8.15;1.30;;;;;;;;;;5029254;28;20045;-80
2024/01/31 03:48:45;;;;;;;11.10;1.50;;;;;;;;;;5016770;28;20383;-80
2024/01/31 03:51:20;;;;;;;8.73;1.17;;;;;;;;;;5033445;28;20048;-81
2024/01/31 03:53:49;;;;;;;9.20;1.48;;;;;;;;;;5033359;28;20030;-80
2024/01/31 03:56:16;;;;;;;7.40;1.00;;;;;;;;;;5033989;28;20045;-80
2024/01/31 03:58:42;;;;;;;7.47;1.38;;;;;;;;;;5032422;28;20525;-80
2024/01/31 04:01:08;;;;;;;9.88;1.33;;;;;;;;;;5033609;28;20046;-81
2024/01/31 04:03:36;;;;;;;4.68;1.15;;;;;;;;;;5034483;28;20037;-80
2024/01/31 04:06:03;;;;;;;6.70;1.40;;;;;;;;;;4999457;28;20038;-80
2024/01/31 04:08:29;;;;;;;8.73;1.27;;;;;;;;;;5010962;28;20049;-80
2024/01/31 04:10:55;;;;;;;5.47;1.52;;;;;;;;;;5024046;28;20062;-80
2024/01/31 04:13:21;;;;;;;5.82;1.08;;;;;;;;;;5034696;28;20049;-80
2024/01/31 04:15:47;;;;;;;9.10;1.42;;;;;;;;;;5033011;28;20132;-80
2024/01/31 04:18:13;;;;;;;10.38;1.30;;;;;;;;;;5038297;28;20049;-80
2024/01/31 04:20:39;;;;;;;5.85;1.08;;;;;;;;;;5031459;28;20041;-80
2024/01/31 04:23:06;;;;;;;9.75;1.40;;;;;;;;;;5036119;28;20041;-80
2024/01/31 04:25:32;;;;;;;9.20;1.60;;;;;;;;;;5038249;28;20052;-80
2024/01/31 04:27:58;;;;;;;8.35;1.55;;;;;;;;;;5021396;28;20052;-81
2024/01/31 04:30:25;;;;;;;8.10;1.27;;;;;;;;;;5037788;28;20488;-80
2024/01/31 04:32:51;;;;;;;8.55;1.25;;;;;;;;;;5020342;28;20124;-80
2024/01/31 04:35:17;;;;;;;8.32;1.30;;;;;;;;;;5038223;28;20049;-80
2024/01/31 04:37:43;;;;;;;7.90;1.20;;;;;;;;;;5039741;28;20105;-81
2024/01/31 04:40:09;;;;;;;6.53;1.25;;;;;;;;;;5038676;28;20048;-80
2024/01/31 04:42:35;;;;;;;9.43;1.33;;;;;;;;;;5038587;28;20045;-80
2024/01/31 04:45:01;;;;;;;4.28;1.10;;;;;;;;;;5038274;28;20068;-80
2024/01/31 04:47:27;;;;;;;11.38;1.27;;;;;;;;;;5030378;28;20042;-80
2024/01/31 04:49:56;;;;;;;5.18;1.40;;;;;;;;;;5032775;28;20128;-80
2024/01/31 04:52:22;;;;;;;8.93;1.30;;;;;;;;;;5036384;28;20105;-80
2024/01/31 04:54:48;;;;;;;9.48;2.50;;;;;;;;;;5035812;28;20049;-81
2024/01/31 04:57:14;;;;;;;7.47;2.58;;;;;;;;;;5017879;28;20037;-80
2024/01/31 04:59:42;;;;;;;8.13;2.10;;;;;;;;;;5023859;28;20044;-80
2024/01/31 05:02:08;;;;;;;11.15;3.85;;;;;;;;;;5037341;28;20044;-81
2024/01/31 05:04:34;;;;;;;10.25;3.85;;;;;;;;;;5037718;28;20045;-80
2024/01/31 05:07:00;;;;;;;9.18;3.88;;;;;;;;;;5037060;28;20088;-80
2024/01/31 05:09:26;;;;;;;11.45;3.33;;;;;;;;;;5038937;28;20053;-80
2024/01/31 05:11:52;;;;;;;10.02;2.50;;;;;;;;;;5039771;28;20061;-80
2024/01/31 05:14:18;;;;;;;8.75;1.73;;;;;;;;;;5037161;28;20046;-80
2024/01/31 05:16:44;;;;;;;12.38;2.17;;;;;;;;;;5020906;28;20050;-81
2024/01/31 05:19:13;;;;;;;7.50;1.67;;;;;;;;;;5021157;28;20045;-80
2024/01/31 05:21:45;;;;;;;6.18;2.17;;;;;;;;;;5021522;28;20404;-80
2024/01/31 05:24:12;;;;;;;8.15;2.53;;;;;;;;;;5039355;28;20037;-81
2024/01/31 05:26:38;;;;;;;12.85;3.67;;;;;;;;;;5020410;28;20073;-80
2024/01/31 05:29:04;;;;;;;9.57;3.20;;;;;;;;;;5020572;28;20096;-80
2024/01/31 05:31:30;;;;;;;6.63;2.42;;;;;;;;;;5036543;28;20051;-81
2024/01/31 05:33:56;;;;;;;10.00;3.50;;;;;;;;;;5039805;28;20037;-80
2024/01/31 05:36:22;;;;;;;7.18;1.90;;;;;;;;;;5028912;28;20141;-80
2024/01/31 05:38:48;;;;;;;9.18;1.60;;;;;;;;;;5038159;28;20476;-80
2024/01/31 05:41:14;;;;;;;5.57;1.05;;;;;;;;;;5036904;28;20077;-80
2024/01/31 05:43:40;;;;;;;9.05;1.40;;;;;;;;;;5036876;28;20045;-81
2024/01/31 05:46:06;;;;;;;6.82;1.10;;;;;;;;;;5036203;28;20129;-80
2024/01/31 05:48:32;;;;;;;5.95;1.30;;;;;;;;;;5037147;28;20376;-80
2024/01/31 05:50:58;;;;;;;6.22;1.75;;;;;;;;;;5036799;28;20042;-80
2024/01/31 05:53:24;;;;;;;5.20;1.35;;;;;;;;;;5039444;28;20052;-79
2024/01/31 05:55:50;;;;;;;9.57;1.63;;;;;;;;;;5040457;28;20124;-80
2024/01/31 05:58:23;;;;;;;9.45;1.60;;;;;;;;;;5040975;28;20101;-80
2024/01/31 06:00:49;;;;;;;6.93;1.40;;;;;;;;;;5041905;28;20064;-80
2024/01/31 06:03:15;;;;;;;12.50;3.60;;;;;;;;;;5042510;28;20069;-80
2024/01/31 06:05:42;;;;;;;9.77;2.85;;;;;;;;;;5042517;28;20048;-80
2024/01/31 06:08:08;;;;;;;6.63;2.70;;;;;;;;;;5042274;28;20045;-80
2024/01/31 06:10:34;;;;;;;9.85;3.67;;;;;;;;;;5041283;28;20085;-80
2024/01/31 06:13:00;;;;;;;4.80;0.90;;;;;;;;;;5034571;28;20495;-81
2024/01/31 06:15:26;;;;;;;10.13;1.77;;;;;;;;;;5007282;28;20042;-81
2024/01/31 06:17:52;;;;;;;7.38;2.03;;;;;;;;;;5034204;28;20052;-80
2024/01/31 06:20:21;;;;;;;5.82;1.70;;;;;;;;;;5036724;28;20038;-80
2024/01/31 06:22:47;;;;;;;9.43;2.08;;;;;;;;;;5043684;28;20092;-79
2024/01/31 06:25:13;;;;;;;10.68;4.93;;;;;;;;;;5023267;28;20495;-80
2024/01/31 06:27:39;;;;;;;7.97;3.33;;;;;;;;;;5023816;28;20049;-81
2024/01/31 06:30:06;;;;;;;9.35;3.50;;;;;;;;;;5041818;28;20037;-80
2024/01/31 06:32:34;;;;;;;6.13;2.25;;;;;;;;;;5032795;28;20057;-80
2024/01/31 06:35:00;;;;;;;6.78;2.20;;;;;;;;;;5030346;28;20045;-81
2024/01/31 06:37:27;;;;;;;6.93;1.65;;;;;;;;;;5034566;28;20057;-80
2024/01/31 06:39:54;;;;;;;6.53;1.52;;;;;;;;;;5034721;28;20052;-80
2024/01/31 06:42:20;;;;;;;6.97;3.50;;;;;;;;;;5039061;28;20118;-81
2024/01/31 06:44:46;;;;;;;9.20;3.72;;;;;;;;;;5032044;28;20045;-80
2024/01/31 06:47:12;;;;;;;9.18;2.72;;;;;;;;;;5036933;28;20045;-81
2024/01/31 06:49:38;;;;;;;8.60;2.78;;;;;;;;;;5031969;28;20049;-80
2024/01/31 06:52:06;;;;;;;8.10;2.17;;;;;;;;;;5032358;28;20049;-81
2024/01/31 06:54:32;;;;;;;6.38;1.50;;;;;;;;;;5030647;28;20101;-80
2024/01/31 06:56:58;;;;;;;6.95;2.00;;;;;;;;;;5040633;28;20069;-80
2024/01/31 06:59:24;;;;;;;7.32;2.10;;;;;;;;;;5040714;28;20045;-80
2024/01/31 07:01:50;;;;;;;10.85;2.53;;;;;;;;;;5041217;28;20045;-80
2024/01/31 07:04:16;;;;;;;6.43;2.08;;;;;;;;;;5040606;28;20042;-80
2024/01/31 07:06:42;;;;;;;6.95;2.40;;;;;;;;;;5038806;28;20037;-80
2024/01/31 07:09:08;;;;;;;8.02;1.95;;;;;;;;;;5023930;28;20056;-80
2024/01/31 07:11:34;;;;;;;10.30;2.60;;;;;;;;;;5036317;28;20050;-80
2024/01/31 07:14:00;;;;;;;8.10;2.63;;;;;;;;;;5028770;28;20049;-80
2024/01/31 07:16:26;;;;;;;5.22;1.40;;;;;;;;;;5040515;28;20057;-80
2024/01/31 07:18:52;;;;;;;8.88;1.60;;;;;;;;;;5034426;28;20052;-80
2024/01/31 07:21:25;;;;;;;8.60;1.52;;;;;;;;;;5036116;28;20045;-81
2024/01/31 07:23:52;;;;;;;9.23;2.05;;;;;;;;;;5036874;28;20077;-80
2024/01/31 07:26:26;;;;;;;6.40;1.42;;;;;;;;;;5035314;28;20451;-80
2024/01/31 07:28:52;;;;;;;7.55;1.75;;;;;;;;;;5032800;28;20129;-80
2024/01/31 07:31:18;;;;;;;8.60;1.80;;;;;;;;;;5032926;28;20053;-80
2024/01/31 07:33:45;;;;;;;12.23;1.75;;;;;;;;;;5039174;28;20097;-80
2024/01/31 07:36:11;;;;;;;6.35;1.50;;;;;;;;;;5043507;28;20072;-80
2024/01/31 07:38:37;;;;;;;11.65;2.28;;;;;;;;;;5035665;28;20087;-80
2024/01/31 07:41:03;;;;;;;8.30;2.03;;;;;;;;;;5037447;28;20467;-80
2024/01/31 07:43:29;;;;;;;10.85;2.20;;;;;;;;;;5038946;28;20045;-80
2024/01/31 07:45:55;;;;;;;11.00;2.22;;;;;;;;;;5036594;28;21559;-82
2024/01/31 07:48:21;;;;;;;9.75;2.00;;;;;;;;;;5039130;28;20073;-80
2024/01/31 07:50:47;;;;;;;8.43;1.80;;;;;;;;;;5039940;28;20045;-81
2024/01/31 07:53:13;;;;;;;7.63;2.20;;;;;;;;;;5047727;28;20486;-81
2024/01/31 07:55:39;;;;;;;7.43;2.03;;;;;;;;;;5030725;28;20053;-81
2024/01/31 07:58:05;;;;;;;11.63;2.75;;;;;;;;;;5040936;28;20094;-82
2024/01/31 08:00:31;;;;;;;8.43;2.42;;;;;;;;;;5041782;28;20349;-80
2024/01/31 08:02:58;;;;;;;13.25;2.40;;;;;;;;;;5043340;28;20041;-80
2024/01/31 08:05:24;;;;;;;7.53;2.22;;;;;;;;;;5040559;28;20491;-80
2024/01/31 08:07:50;;;;;;;9.60;2.72;;;;;;;;;;5040542;28;20061;-80
2024/01/31 08:10:16;;;;;;;8.35;2.58;;;;;;;;;;5040076;28;20057;-80
2024/01/31 08:12:43;;;;;;;10.85;2.72;;;;;;;;;;5039647;28;20104;-80
2024/01/31 08:15:09;;;;;;;9.02;2.80;;;;;;;;;;5022621;28;20052;-80
2024/01/31 08:17:35;;;;;;;10.15;2.55;;;;;;;;;;5039653;28;20037;-81
2024/01/31 08:20:03;;;;;;;8.75;2.85;;;;;;;;;;5040794;28;20065;-81
2024/01/31 08:22:31;;;;;;;13.77;3.67;;;;;;;;;;5040618;28;20089;-80
2024/01/31 08:24:57;;;;;;;10.73;4.15;;;;;;;;;;5040489;28;20104;-80
2024/01/31 08:27:23;;;;;;;12.35;4.70;;;;;;;;;;5039966;28;20049;-80
2024/01/31 08:29:51;;;;;;;16.50;4.35;;;;;;;;;;5058301;28;20072;-80
2024/01/31 08:32:18;;;;;;;11.10;3.63;;;;;;;;;;5059779;28;20113;-80
2024/01/31 08:34:44;;;;;;;11.23;4.25;;;;;;;;;;5059427;28;20068;-81
2024/01/31 08:37:10;;;;;;;12.02;4.00;;;;;;;;;;5042173;28;20046;-81
2024/01/31 08:39:36;;;;;;;10.80;3.78;;;;;;;;;;5039422;28;20049;-81
2024/01/31 08:42:03;;;;;;;13.85;3.80;;;;;;;;;;5039252;28;20076;-80
2024/01/31 08:44:29;;;;;;;12.48;4.90;;;;;;;;;;5024544;28;20053;-80
2024/01/31 08:46:55;;;;;;;11.60;4.25;;;;;;;;;;5043476;28;20052;-80
2024/01/31 08:49:21;;;;;;;7.55;4.10;;;;;;;;;;5049771;28;20060;-80
2024/01/31 08:51:47;;;;;;;11.43;5.03;;;;;;;;;;5048234;28;20052;-81
2024/01/31 08:54:13;;;;;;;11.73;4.88;;;;;;;;;;5040264;28;20045;-81
2024/01/31 08:56:39;;;;;;;10.93;5.20;;;;;;;;;;5024423;28;20038;-81
2024/01/31 08:59:05;;;;;;;10.70;4.90;;;;;;;;;;5038807;28;20093;-81
2024/01/31 09:01:31;;;;;;;10.63;4.88;;;;;;;;;;5037578;28;20640;-81
2024/01/31 09:03:57;;;;;;;13.63;5.20;;;;;;;;;;5042485;28;20069;-81
2024/01/31 09:06:24;;;;;;;11.05;5.53;;;;;;;;;;5041586;28;20053;-81
2024/01/31 09:08:50;;;;;;;12.13;4.90;;;;;;;;;;5049175;28;20046;-81
2024/01/31 09:11:16;;;;;;;9.25;4.40;;;;;;;;;;5051587;28;20144;-81
2024/01/31 09:13:43;;;;;;;10.80;4.63;;;;;;;;;;5008265;28;20057;-81
2024/01/31 09:16:09;;;;;;;12.98;5.22;;;;;;;;;;5007889;28;20046;-80
2024/01/31 09:18:35;;;;;;;10.25;4.57;;;;;;;;;;5043136;28;20110;-81
2024/01/31 09:21:01;;;;;;;9.23;4.55;;;;;;;;;;5042770;28;20076;-81
2024/01/31 09:23:27;;;;;;;13.65;4.93;;;;;;;;;;5037880;28;20049;-81
2024/01/31 09:25:53;;;;;;;8.38;4.38;;;;;;;;;;5042052;28;20215;-81
2024/01/31 09:28:19;;;;;;;12.38;4.45;;;;;;;;;;5041146;28;20068;-81
2024/01/31 09:30:46;;;;;;;10.40;4.70;;;;;;;;;;5033085;28;20049;-81
2024/01/31 09:33:12;;;;;;;10.00;4.30;;;;;;;;;;5040084;28;20511;-81
2024/01/31 09:35:39;;;;;;;8.27;4.22;;;;;;;;;;5041908;28;20049;-81
2024/01/31 09:38:05;;;;;;;8.45;4.22;;;;;;;;;;5023730;28;20085;-81
2024/01/31 09:40:34;;;;;;;9.32;3.88;;;;;;;;;;5033469;28;20045;-81
2024/01/31 09:43:00;;;;;;;8.25;4.10;;;;;;;;;;5041450;28;20049;-81
2024/01/31 09:45:28;;;;;;;11.90;4.43;;;;;;;;;;5042097;28;20117;-82
2024/01/31 09:47:57;;;;;;;8.88;3.65;;;;;;;;;;5029466;28;20124;-81
2024/01/31 09:50:23;;;;;;;9.43;3.60;;;;;;;;;;5041404;28;20164;-81
2024/01/31 09:52:55;;;;;;;7.90;4.00;;;;;;;;;;5042263;28;20046;-81
2024/01/31 09:55:23;;;;;;;8.70;3.92;;;;;;;;;;5040064;28;20045;-81
2024/01/31 09:57:49;;;;;;;10.90;4.20;;;;;;;;;;5041333;28;20083;-81
2024/01/31 10:00:17;;;;;;;9.02;4.07;;;;;;;;;;5043270;28;20086;-79
2024/01/31 10:02:44;;;;;;;6.97;4.13;;;;;;;;;;5036793;28;20038;-80
2024/01/31 10:05:10;;;;;;;8.38;4.03;;;;;;;;;;5049335;28;20049;-80
2024/01/31 10:07:39;;;;;;;8.45;4.57;;;;;;;;;;5042590;28;20045;-80
2024/01/31 10:10:06;;;;;;;11.15;4.20;;;;;;;;;;5018221;28;20061;-80
2024/01/31 10:12:32;;;;;;;8.98;4.43;;;;;;;;;;5021714;28;20133;-80
2024/01/31 10:14:58;;;;;;;8.68;4.53;;;;;;;;;;5011284;28;20038;-81
2024/01/31 10:17:24;;;;;;;10.93;4.72;;;;;;;;;;5028869;28;20463;-81
2024/01/31 10:19:50;;;;;;;9.00;4.68;;;;;;;;;;5026255;28;20049;-81
2024/01/31 10:22:16;;;;;;;8.15;4.35;;;;;;;;;;5021270;28;20137;-82
2024/01/31 10:24:54;;;;;;;8.98;4.15;;;;;;;;;;5022596;28;20072;-81
2024/01/31 10:27:21;;;;;;;8.85;4.65;;;;;;;;;;5011753;28;20050;-80
2024/01/31 10:29:48;;;;;;;9.68;4.50;;;;;;;;;;5022480;28;20137;-81
2024/01/31 10:32:17;;;;;;;12.65;5.13;;;;;;;;;;5021612;28;20050;-81
2024/01/31 10:34:44;;;;;;;8.05;4.80;;;;;;;;;;5008394;28;20054;-81
2024/01/31 10:37:10;;;;;;;9.73;4.70;;;;;;;;;;5015121;28;20050;-81
2024/01/31 10:39:37;;;;;;;8.57;5.50;;;;;;;;;;5022418;28;20160;-81
2024/01/31 10:42:05;;;;;;;12.60;5.00;;;;;;;;;;5021798;28;20057;-81
2024/01/31 10:44:32;;;;;;;8.63;5.18;;;;;;;;;;5007083;28;20050;-81
2024/01/31 10:46:58;;;;;;;9.55;4.93;;;;;;;;;;5001697;28;20046;-81
2024/01/31 10:49:24;;;;;;;7.00;5.10;;;;;;;;;;5006938;28;20118;-80
2024/01/31 10:51:51;;;;;;;9.20;4.90;;;;;;;;;;5019621;28;20041;-82
2024/01/31 10:54:18;;;;;;;9.57;5.40;;;;;;;;;;5021722;28;20141;-80
2024/01/31 10:56:45;;;;;;;11.20;5.65;;;;;;;;;;5021135;28;20053;-81
2024/01/31 10:59:12;;;;;;;9.63;5.68;;;;;;;;;;5020908;28;20080;-80
2024/01/31 11:01:38;;;;;;;10.50;6.20;;;;;;;;;;5020732;28;20050;-80
2024/01/31 11:04:08;;;;;;;11.88;6.85;;;;;;;;;;5020215;28;20057;-80
2024/01/31 11:06:41;;;;;;;10.60;6.32;;;;;;;;;;5019548;28;20041;-80
2024/01/31 11:09:08;;;;;;;9.98;5.90;;;;;;;;;;5020855;28;20097;-80
2024/01/31 11:11:34;;;;;;;8.40;5.60;;;;;;;;;;5019937;28;20080;-80
2024/01/31 11:14:12;;;;;;;9.13;5.63;;;;;;;;;;5021840;28;20061;-80
2024/01/31 11:16:38;;;;;;;11.23;5.80;;;;;;;;;;5019294;28;20114;-81
2024/01/31 11:19:08;;;;;;;9.98;5.43;;;;;;;;;;5038450;28;20061;-80
2024/01/31 11:21:40;;;;;;;11.65;5.63;;;;;;;;;;5029504;28;20057;-79
2024/01/31 11:24:06;;;;;;;8.48;5.22;;;;;;;;;;5036216;28;20045;-78
2024/01/31 11:26:39;;;;;;;9.13;5.47;;;;;;;;;;5019652;28;20096;-80
2024/01/31 11:29:05;;;;;;;8.65;5.78;;;;;;;;;;5038763;28;20069;-80
2024/01/31 11:31:31;;;;;;;11.18;5.80;;;;;;;;;;5038575;28;20049;-80
2024/01/31 11:33:59;;;;;;;11.77;6.28;;;;;;;;;;5038710;28;20056;-80
2024/01/31 11:36:25;;;;;;;9.68;6.28;;;;;;;;;;5039757;28;20041;-80
2024/01/31 11:38:51;;;;;;;10.50;6.47;;;;;;;;;;5039603;28;20096;-81
2024/01/31 11:41:17;;;;;;;10.40;7.25;;;;;;;;;;5031486;28;20053;-80
2024/01/31 11:43:43;;;;;;;10.90;7.00;;;;;;;;;;5046601;28;20414;-80
2024/01/31 11:46:10;;;;;;;9.75;6.95;;;;;;;;;;5037070;28;20046;-80
2024/01/31 11:48:36;;;;;;;11.63;7.78;;;;;;;;;;5040657;28;20049;-80
2024/01/31 11:51:04;;;;;;;17.60;9.07;;;;;;;;;;5039366;28;20055;-80
2024/01/31 11:53:30;;;;;;;12.13;8.27;;;;;;;;;;5039279;28;20042;-80
2024/01/31 11:55:56;;;;;;;11.82;8.98;;;;;;;;;;5037455;28;20054;-80
2024/01/31 11:58:22;;;;;;;9.63;7.70;;;;;;;;;;5038482;28;20398;-81
2024/01/31 12:00:48;;;;;;;11.35;7.60;;;;;;;;;;5039728;28;20376;-80
2024/01/31 12:03:14;;;;;;;10.32;8.57;;;;;;;;;;5038979;28;20038;-80
2024/01/31 12:05:41;;;;;;;11.85;7.70;;;;;;;;;;5036462;28;20037;-81
2024/01/31 12:08:07;;;;;;;10.45;7.47;;;;;;;;;;5002086;28;20061;-80
2024/01/31 12:10:33;;;;;;;8.70;6.97;;;;;;;;;;5023006;28;20087;-80
2024/01/31 12:13:00;;;;;;;11.48;7.72;;;;;;;;;;5037262;28;20041;-80
2024/01/31 12:15:27;;;;;;;12.85;7.97;;;;;;;;;;5038589;28;20455;-80
2024/01/31 12:17:53;;;;;;;10.32;6.20;;;;;;;;;;5021068;28;20038;-81
2024/01/31 12:20:20;;;;;;;8.55;6.10;;;;;;;;;;5045088;28;20363;-81
2024/01/31 12:22:46;;;;;;;9.30;6.20;;;;;;;;;;5041673;28;20607;-81
2024/01/31 12:25:13;;;;;;;8.65;5.80;;;;;;;;;;5043587;28;20050;-81
2024/01/31 12:27:39;;;;;;;7.55;5.88;;;;;;;;;;5039765;28;20452;-80
2024/01/31 12:30:05;;;;;;;9.02;6.18;;;;;;;;;;5035134;28;20137;-81
2024/01/31 12:32:31;;;;;;;7.97;6.15;;;;;;;;;;5038954;28;20053;-81
2024/01/31 12:34:57;;;;;;;9.93;6.35;;;;;;;;;;5043432;28;20126;-81
2024/01/31 12:37:23;;;;;;;8.32;6.18;;;;;;;;;;5040161;28;20038;-81
2024/01/31 12:39:50;;;;;;;8.50;6.50;;;;;;;;;;5034640;28;20418;-80
2024/01/31 12:42:16;;;;;;;8.52;6.32;;;;;;;;;;5043775;28;20072;-81
2024/01/31 12:44:42;;;;;;;10.80;7.28;;;;;;;;;;5042875;28;20102;-81
2024/01/31 12:47:09;;;;;;;11.13;6.85;;;;;;;;;;5041910;28;20045;-81
2024/01/31 12:49:40;;;;;;;9.80;7.28;;;;;;;;;;5041637;28;20049;-80
2024/01/31 12:52:07;;;;;;;8.07;6.90;;;;;;;;;;5041937;28;20049;-80
2024/01/31 12:54:33;;;;;;;10.02;7.20;;;;;;;;;;5041743;28;20068;-81
2024/01/31 12:56:59;;;;;;;8.85;6.60;;;;;;;;;;5041915;28;20046;-81
2024/01/31 12:59:27;;;;;;;15.35;8.65;;;;;;;;;;5042348;28;20124;-81
2024/01/31 13:01:53;;;;;;;12.85;8.55;;;;;;;;;;5050468;28;20060;-81
2024/01/31 13:04:21;;;;;;;11.65;8.88;;;;;;;;;;5036910;28;20116;-81
2024/01/31 13:06:47;;;;;;;12.25;8.38;;;;;;;;;;5057424;28;20080;-81
2024/01/31 13:09:14;;;;;;;12.27;9.20;;;;;;;;;;5040096;28;20045;-81
2024/01/31 13:11:40;;;;;;;11.93;8.80;;;;;;;;;;5062644;28;20045;-80
2024/01/31 13:14:06;;;;;;;11.13;8.95;;;;;;;;;;5045996;28;20152;-80
2024/01/31 13:16:33;;;;;;;14.23;9.27;;;;;;;;;;5029604;28;20132;-80
2024/01/31 13:19:00;;;;;;;11.57;8.98;;;;;;;;;;5040783;28;20092;-80
2024/01/31 13:21:27;;;;;;;10.93;9.10;;;;;;;;;;5027507;28;20058;-81
2024/01/31 13:23:55;;;;;;;10.35;9.10;;;;;;;;;;5003546;28;20073;-81
2024/01/31 13:26:22;;;;;;;9.85;8.65;;;;;;;;;;5032332;28;20050;-81
2024/01/31 13:28:48;;;;;;;12.68;9.25;;;;;;;;;;5022866;28;20045;-80
2024/01/31 13:31:14;;;;;;;12.18;8.40;;;;;;;;;;5042872;28;20049;-81
2024/01/31 13:33:40;;;;;;;11.82;9.95;;;;;;;;;;5045536;28;20051;-81
2024/01/31 13:36:08;;;;;;;11.27;8.10;;;;;;;;;;5042575;28;20067;-81
2024/01/31 13:38:34;;;;;;;10.52;9.00;;;;;;;;;;5042467;28;20041;-81
2024/01/31 13:41:00;;;;;;;9.45;8.05;;;;;;;;;;5040813;28;20056;-80
2024/01/31 13:43:26;;;;;;;12.88;8.90;;;;;;;;;;5036694;28;20391;-80
2024/01/31 13:45:52;;;;;;;10.82;8.45;;;;;;;;;;5028418;28;20045;-81
2024/01/31 13:48:18;;;;;;;10.10;8.40;;;;;;;;;;5042342;28;20053;-81
2024/01/31 13:50:44;;;;;;;11.90;8.70;;;;;;;;;;5038796;28;20071;-81
2024/01/31 13:53:10;;;;;;;11.05;8.60;;;;;;;;;;5042386;28;20053;-80
2024/01/31 13:55:36;;;;;;;12.68;8.77;;;;;;;;;;5030739;28;20058;-81
2024/01/31 13:58:02;;;;;;;10.43;8.60;;;;;;;;;;5036526;28;20050;-81
2024/01/31 14:00:28;;;;;;;9.82;8.48;;;;;;;;;;5032634;28;20049;-80
2024/01/31 14:02:54;;;;;;;11.68;9.27;;;;;;;;;;5035459;28;20125;-81
2024/01/31 14:05:20;;;;;;;12.63;9.60;;;;;;;;;;5038696;28;20049;-80
2024/01/31 14:07:46;;;;;;;10.90;8.93;;;;;;;;;;5033818;28;20065;-80
2024/01/31 14:10:12;;;;;;;14.35;9.00;;;;;;;;;;5036589;28;20073;-81
2024/01/31 14:12:38;;;;;;;12.95;9.13;;;;;;;;;;5022506;28;20038;-80
2024/01/31 14:15:05;;;;;;;13.90;9.68;;;;;;;;;;5040680;28;20458;-80
2024/01/31 14:17:31;;;;;;;14.55;9.38;;;;;;;;;;5026094;28;20045;-80
2024/01/31 14:19:57;;;;;;;12.23;8.82;;;;;;;;;;5009323;28;20049;-81
2024/01/31 14:22:23;;;;;;;14.55;9.60;;;;;;;;;;5036667;28;20045;-81
2024/01/31 14:24:49;;;;;;;12.93;9.32;;;;;;;;;;5040576;28;20046;-82
2024/01/31 14:27:15;;;;;;;14.70;10.65;;;;;;;;;;5041671;28;20045;-81
2024/01/31 14:29:43;;;;;;;15.30;10.05;;;;;;;;;;5023092;28;20459;-79
2024/01/31 14:32:12;;;;;;;15.13;10.57;;;;;;;;;;5020904;28;20136;-80
2024/01/31 14:34:39;;;;;;;15.38;10.80;;;;;;;;;;5036371;28;20558;-80